sensor_id;sensor_type;location;lat;lon;timestamp;P1;durP1;ratioP1;P2;durP2;ratioP2
48516;SDS011;34310;51.904;4.256;2024-01-11T00:01:36;5.18;;;4.68;;
48516;SDS011;34310;51.904;4.256;2024-01-11T00:04:02;5.72;;;5.13;;
48516;SDS011;34310;51.904;4.256;2024-01-11T00:06:29;6.07;;;4.78;;
48516;SDS011;34310;51.904;4.256;2024-01-11T00:08:56;6.03;;;4.95;;
48516;SDS011;34310;51.904;4.256;2024-01-11T00:11:22;6.82;;;5.35;;
48516;SDS011;34310;51.904;4.256;2024-01-11T00:13:49;5.65;;;5.00;;
48516;SDS011;34310;51.904;4.256;2024-01-11T00:16:15;5.65;;;4.97;;
48516;SDS011;34310;51.904;4.256;2024-01-11T00:18:42;6.03;;;5.18;;
48516;SDS011;34310;51.904;4.256;2024-01-11T00:21:09;5.35;;;4.85;;
48516;SDS011;34310;51.904;4.256;2024-01-11T00:23:35;6.18;;;4.90;;
48516;SDS011;34310;51.904;4.256;2024-01-11T00:28:31;5.07;;;4.47;;
48516;SDS011;34310;51.904;4.256;2024-01-11T00:30:58;7.10;;;5.20;;
48516;SDS011;34310;51.904;4.256;2024-01-11T00:33:25;5.45;;;4.70;;
48516;SDS011;34310;51.904;4.256;2024-01-11T00:35:51;5.50;;;4.82;;
48516;SDS011;34310;51.904;4.256;2024-01-11T00:38:18;6.13;;;4.97;;
48516;SDS011;34310;51.904;4.256;2024-01-11T00:40:45;5.90;;;5.10;;
48516;SDS011;34310;51.904;4.256;2024-01-11T00:43:11;6.35;;;5.15;;
48516;SDS011;34310;51.904;4.256;2024-01-11T00:45:38;5.70;;;5.05;;
48516;SDS011;34310;51.904;4.256;2024-01-11T00:48:04;6.28;;;5.20;;
48516;SDS011;34310;51.904;4.256;2024-01-11T00:50:31;5.90;;;5.10;;
48516;SDS011;34310;51.904;4.256;2024-01-11T00:52:58;6.35;;;5.32;;
48516;SDS011;34310;51.904;4.256;2024-01-11T00:55:24;6.95;;;5.40;;
48516;SDS011;34310;51.904;4.256;2024-01-11T00:57:51;5.97;;;5.32;;
48516;SDS011;34310;51.904;4.256;2024-01-11T01:00:17;7.07;;;5.78;;
48516;SDS011;34310;51.904;4.256;2024-01-11T01:02:44;6.68;;;5.47;;
48516;SDS011;34310;51.904;4.256;2024-01-11T01:05:11;5.90;;;5.30;;
48516;SDS011;34310;51.904;4.256;2024-01-11T01:07:38;6.43;;;5.65;;
48516;SDS011;34310;51.904;4.256;2024-01-11T01:10:04;6.13;;;5.32;;
48516;SDS011;34310;51.904;4.256;2024-01-11T01:12:31;6.15;;;5.43;;
48516;SDS011;34310;51.904;4.256;2024-01-11T01:14:58;8.60;;;5.75;;
48516;SDS011;34310;51.904;4.256;2024-01-11T01:17:24;7.95;;;6.07;;
48516;SDS011;34310;51.904;4.256;2024-01-11T01:19:51;6.22;;;5.63;;
48516;SDS011;34310;51.904;4.256;2024-01-11T01:22:18;7.72;;;5.82;;
48516;SDS011;34310;51.904;4.256;2024-01-11T01:24:44;6.72;;;5.38;;
48516;SDS011;34310;51.904;4.256;2024-01-11T01:27:11;7.53;;;6.28;;
48516;SDS011;34310;51.904;4.256;2024-01-11T01:29:37;7.00;;;5.90;;
48516;SDS011;34310;51.904;4.256;2024-01-11T01:32:04;6.55;;;5.72;;
48516;SDS011;34310;51.904;4.256;2024-01-11T01:34:31;6.57;;;5.80;;
48516;SDS011;34310;51.904;4.256;2024-01-11T01:36:58;6.97;;;5.60;;
48516;SDS011;34310;51.904;4.256;2024-01-11T01:39:24;6.53;;;5.60;;
48516;SDS011;34310;51.904;4.256;2024-01-11T01:41:51;6.13;;;5.30;;
48516;SDS011;34310;51.904;4.256;2024-01-11T01:44:17;6.10;;;5.28;;
48516;SDS011;34310;51.904;4.256;2024-01-11T01:46:44;6.93;;;5.60;;
48516;SDS011;34310;51.904;4.256;2024-01-11T01:49:11;7.03;;;5.53;;
48516;SDS011;34310;51.904;4.256;2024-01-11T01:51:38;6.03;;;5.30;;
48516;SDS011;34310;51.904;4.256;2024-01-11T01:54:04;7.05;;;5.65;;
48516;SDS011;34310;51.904;4.256;2024-01-11T01:56:31;6.70;;;5.78;;
48516;SDS011;34310;51.904;4.256;2024-01-11T01:58:58;6.40;;;5.32;;
48516;SDS011;34310;51.904;4.256;2024-01-11T02:01:27;6.72;;;5.85;;
48516;SDS011;34310;51.904;4.256;2024-01-11T02:03:54;5.72;;;5.18;;
48516;SDS011;34310;51.904;4.256;2024-01-11T02:06:22;5.93;;;5.30;;
48516;SDS011;34310;51.904;4.256;2024-01-11T02:08:51;6.70;;;5.30;;
48516;SDS011;34310;51.904;4.256;2024-01-11T02:11:19;6.82;;;5.53;;
48516;SDS011;34310;51.904;4.256;2024-01-11T02:13:46;6.50;;;5.00;;
48516;SDS011;34310;51.904;4.256;2024-01-11T02:16:13;6.20;;;5.35;;
48516;SDS011;34310;51.904;4.256;2024-01-11T02:18:40;6.28;;;5.38;;
48516;SDS011;34310;51.904;4.256;2024-01-11T02:21:08;7.55;;;5.82;;
48516;SDS011;34310;51.904;4.256;2024-01-11T02:23:42;6.25;;;5.47;;
48516;SDS011;34310;51.904;4.256;2024-01-11T02:26:11;5.90;;;5.30;;
48516;SDS011;34310;51.904;4.256;2024-01-11T02:28:38;8.07;;;5.97;;
48516;SDS011;34310;51.904;4.256;2024-01-11T02:31:08;6.57;;;5.28;;
48516;SDS011;34310;51.904;4.256;2024-01-11T02:33:35;6.82;;;5.60;;
48516;SDS011;34310;51.904;4.256;2024-01-11T02:36:02;8.40;;;6.28;;
48516;SDS011;34310;51.904;4.256;2024-01-11T02:38:29;6.70;;;5.65;;
48516;SDS011;34310;51.904;4.256;2024-01-11T02:40:56;6.68;;;5.75;;
48516;SDS011;34310;51.904;4.256;2024-01-11T02:43:23;6.78;;;5.50;;
48516;SDS011;34310;51.904;4.256;2024-01-11T02:45:49;7.38;;;6.35;;
48516;SDS011;34310;51.904;4.256;2024-01-11T02:48:16;6.53;;;5.75;;
48516;SDS011;34310;51.904;4.256;2024-01-11T02:50:43;6.45;;;5.63;;
48516;SDS011;34310;51.904;4.256;2024-01-11T02:53:09;7.63;;;6.40;;
48516;SDS011;34310;51.904;4.256;2024-01-11T02:55:36;7.72;;;6.45;;
48516;SDS011;34310;51.904;4.256;2024-01-11T02:58:02;7.00;;;6.03;;
48516;SDS011;34310;51.904;4.256;2024-01-11T03:00:29;7.40;;;6.00;;
48516;SDS011;34310;51.904;4.256;2024-01-11T03:02:56;7.97;;;6.22;;
48516;SDS011;34310;51.904;4.256;2024-01-11T03:05:22;8.20;;;6.53;;
48516;SDS011;34310;51.904;4.256;2024-01-11T03:07:49;7.63;;;6.40;;
48516;SDS011;34310;51.904;4.256;2024-01-11T03:10:15;7.28;;;6.43;;
48516;SDS011;34310;51.904;4.256;2024-01-11T03:12:42;7.20;;;6.05;;
48516;SDS011;34310;51.904;4.256;2024-01-11T03:15:08;7.95;;;6.30;;
48516;SDS011;34310;51.904;4.256;2024-01-11T03:17:35;7.20;;;6.13;;
48516;SDS011;34310;51.904;4.256;2024-01-11T03:20:02;8.32;;;6.40;;
48516;SDS011;34310;51.904;4.256;2024-01-11T03:22:29;7.40;;;5.72;;
48516;SDS011;34310;51.904;4.256;2024-01-11T03:24:55;7.20;;;6.10;;
48516;SDS011;34310;51.904;4.256;2024-01-11T03:27:22;6.88;;;5.85;;
48516;SDS011;34310;51.904;4.256;2024-01-11T03:29:48;7.50;;;6.35;;
48516;SDS011;34310;51.904;4.256;2024-01-11T03:32:15;7.95;;;6.30;;
48516;SDS011;34310;51.904;4.256;2024-01-11T03:34:42;7.85;;;5.95;;
48516;SDS011;34310;51.904;4.256;2024-01-11T03:37:08;7.05;;;6.20;;
48516;SDS011;34310;51.904;4.256;2024-01-11T03:39:35;7.47;;;6.07;;
48516;SDS011;34310;51.904;4.256;2024-01-11T03:42:01;7.80;;;6.05;;
48516;SDS011;34310;51.904;4.256;2024-01-11T03:44:28;6.82;;;5.80;;
48516;SDS011;34310;51.904;4.256;2024-01-11T03:46:55;6.45;;;5.47;;
48516;SDS011;34310;51.904;4.256;2024-01-11T03:49:21;7.32;;;5.70;;
48516;SDS011;34310;51.904;4.256;2024-01-11T03:51:48;6.90;;;5.75;;
48516;SDS011;34310;51.904;4.256;2024-01-11T03:54:14;7.13;;;6.22;;
48516;SDS011;34310;51.904;4.256;2024-01-11T03:56:41;7.68;;;6.15;;
48516;SDS011;34310;51.904;4.256;2024-01-11T03:59:08;6.70;;;5.60;;
48516;SDS011;34310;51.904;4.256;2024-01-11T04:01:38;8.90;;;6.47;;
48516;SDS011;34310;51.904;4.256;2024-01-11T04:04:07;7.03;;;5.78;;
48516;SDS011;34310;51.904;4.256;2024-01-11T04:06:34;7.30;;;6.07;;
48516;SDS011;34310;51.904;4.256;2024-01-11T04:09:01;6.65;;;5.93;;
48516;SDS011;34310;51.904;4.256;2024-01-11T04:11:28;7.55;;;6.38;;
48516;SDS011;34310;51.904;4.256;2024-01-11T04:13:55;7.55;;;6.10;;
48516;SDS011;34310;51.904;4.256;2024-01-11T04:16:21;8.60;;;6.35;;
48516;SDS011;34310;51.904;4.256;2024-01-11T04:18:48;7.45;;;6.68;;
48516;SDS011;34310;51.904;4.256;2024-01-11T04:21:27;7.10;;;6.00;;
48516;SDS011;34310;51.904;4.256;2024-01-11T04:23:54;7.93;;;6.72;;
48516;SDS011;34310;51.904;4.256;2024-01-11T04:26:21;8.10;;;6.82;;
48516;SDS011;34310;51.904;4.256;2024-01-11T04:28:47;8.13;;;6.40;;
48516;SDS011;34310;51.904;4.256;2024-01-11T04:31:15;9.02;;;7.03;;
48516;SDS011;34310;51.904;4.256;2024-01-11T04:33:42;7.68;;;6.57;;
48516;SDS011;34310;51.904;4.256;2024-01-11T04:36:09;7.90;;;6.47;;
48516;SDS011;34310;51.904;4.256;2024-01-11T04:38:36;8.55;;;6.88;;
48516;SDS011;34310;51.904;4.256;2024-01-11T04:41:09;9.32;;;7.30;;
48516;SDS011;34310;51.904;4.256;2024-01-11T04:43:37;9.32;;;7.05;;
48516;SDS011;34310;51.904;4.256;2024-01-11T04:48:41;8.57;;;7.03;;
48516;SDS011;34310;51.904;4.256;2024-01-11T04:51:08;9.10;;;6.85;;
48516;SDS011;34310;51.904;4.256;2024-01-11T04:53:38;8.95;;;7.40;;
48516;SDS011;34310;51.904;4.256;2024-01-11T04:56:08;9.80;;;7.40;;
48516;SDS011;34310;51.904;4.256;2024-01-11T04:58:36;9.48;;;7.60;;
48516;SDS011;34310;51.904;4.256;2024-01-11T05:01:05;9.35;;;7.68;;
48516;SDS011;34310;51.904;4.256;2024-01-11T05:03:33;9.80;;;7.70;;
48516;SDS011;34310;51.904;4.256;2024-01-11T05:05:59;8.85;;;7.82;;
48516;SDS011;34310;51.904;4.256;2024-01-11T05:08:26;8.05;;;7.22;;
48516;SDS011;34310;51.904;4.256;2024-01-11T05:10:53;7.57;;;6.72;;
48516;SDS011;34310;51.904;4.256;2024-01-11T05:13:20;10.25;;;7.40;;
48516;SDS011;34310;51.904;4.256;2024-01-11T05:15:46;8.93;;;6.78;;
48516;SDS011;34310;51.904;4.256;2024-01-11T05:18:13;9.10;;;7.05;;
48516;SDS011;34310;51.904;4.256;2024-01-11T05:20:40;9.30;;;7.50;;
48516;SDS011;34310;51.904;4.256;2024-01-11T05:23:07;10.15;;;7.80;;
48516;SDS011;34310;51.904;4.256;2024-01-11T05:25:34;9.05;;;7.50;;
48516;SDS011;34310;51.904;4.256;2024-01-11T05:28:01;10.35;;;7.82;;
48516;SDS011;34310;51.904;4.256;2024-01-11T05:30:28;9.65;;;7.97;;
48516;SDS011;34310;51.904;4.256;2024-01-11T05:32:56;8.55;;;7.22;;
48516;SDS011;34310;51.904;4.256;2024-01-11T05:35:23;8.88;;;7.63;;
48516;SDS011;34310;51.904;4.256;2024-01-11T05:37:50;10.02;;;8.10;;
48516;SDS011;34310;51.904;4.256;2024-01-11T05:40:16;9.25;;;7.90;;
48516;SDS011;34310;51.904;4.256;2024-01-11T05:42:43;9.98;;;8.00;;
48516;SDS011;34310;51.904;4.256;2024-01-11T05:45:09;10.10;;;7.85;;
48516;SDS011;34310;51.904;4.256;2024-01-11T05:47:36;9.98;;;8.38;;
48516;SDS011;34310;51.904;4.256;2024-01-11T05:50:03;12.25;;;8.68;;
48516;SDS011;34310;51.904;4.256;2024-01-11T05:52:29;10.10;;;8.45;;
48516;SDS011;34310;51.904;4.256;2024-01-11T05:54:56;10.93;;;8.15;;
48516;SDS011;34310;51.904;4.256;2024-01-11T05:57:23;10.88;;;8.88;;
48516;SDS011;34310;51.904;4.256;2024-01-11T05:59:49;10.77;;;8.98;;
48516;SDS011;34310;51.904;4.256;2024-01-11T06:02:16;10.98;;;8.93;;
48516;SDS011;34310;51.904;4.256;2024-01-11T06:04:42;12.18;;;9.20;;
48516;SDS011;34310;51.904;4.256;2024-01-11T06:07:11;10.38;;;9.02;;
48516;SDS011;34310;51.904;4.256;2024-01-11T06:09:38;12.73;;;10.32;;
48516;SDS011;34310;51.904;4.256;2024-01-11T06:12:04;11.77;;;9.85;;
48516;SDS011;34310;51.904;4.256;2024-01-11T06:14:31;12.27;;;9.25;;
48516;SDS011;34310;51.904;4.256;2024-01-11T06:16:58;11.65;;;9.63;;
48516;SDS011;34310;51.904;4.256;2024-01-11T06:19:24;12.68;;;9.77;;
48516;SDS011;34310;51.904;4.256;2024-01-11T06:21:51;11.48;;;9.65;;
48516;SDS011;34310;51.904;4.256;2024-01-11T06:24:17;11.02;;;9.10;;
48516;SDS011;34310;51.904;4.256;2024-01-11T06:26:44;12.02;;;9.73;;
48516;SDS011;34310;51.904;4.256;2024-01-11T06:29:10;14.27;;;10.52;;
48516;SDS011;34310;51.904;4.256;2024-01-11T06:31:37;13.95;;;10.63;;
48516;SDS011;34310;51.904;4.256;2024-01-11T06:34:03;12.52;;;10.57;;
48516;SDS011;34310;51.904;4.256;2024-01-11T06:36:30;12.23;;;10.20;;
48516;SDS011;34310;51.904;4.256;2024-01-11T06:38:56;13.30;;;10.90;;
48516;SDS011;34310;51.904;4.256;2024-01-11T06:41:23;15.25;;;10.73;;
48516;SDS011;34310;51.904;4.256;2024-01-11T06:43:49;13.50;;;10.40;;
48516;SDS011;34310;51.904;4.256;2024-01-11T06:46:19;13.40;;;10.32;;
48516;SDS011;34310;51.904;4.256;2024-01-11T06:48:47;20.58;;;11.23;;
48516;SDS011;34310;51.904;4.256;2024-01-11T06:51:15;18.08;;;12.25;;
48516;SDS011;34310;51.904;4.256;2024-01-11T06:53:41;22.40;;;11.38;;
48516;SDS011;34310;51.904;4.256;2024-01-11T06:56:18;17.08;;;10.98;;
48516;SDS011;34310;51.904;4.256;2024-01-11T06:58:46;17.77;;;11.50;;
48516;SDS011;34310;51.904;4.256;2024-01-11T07:01:13;17.70;;;10.40;;
48516;SDS011;34310;51.904;4.256;2024-01-11T07:03:40;16.88;;;11.73;;
48516;SDS011;34310;51.904;4.256;2024-01-11T07:06:07;15.45;;;11.57;;
48516;SDS011;34310;51.904;4.256;2024-01-11T07:08:33;19.83;;;12.30;;
48516;SDS011;34310;51.904;4.256;2024-01-11T07:11:00;18.35;;;11.73;;
48516;SDS011;34310;51.904;4.256;2024-01-11T07:13:27;17.25;;;11.70;;
48516;SDS011;34310;51.904;4.256;2024-01-11T07:15:54;16.70;;;11.27;;
48516;SDS011;34310;51.904;4.256;2024-01-11T07:18:21;18.90;;;11.13;;
48516;SDS011;34310;51.904;4.256;2024-01-11T07:20:48;16.08;;;11.35;;
48516;SDS011;34310;51.904;4.256;2024-01-11T07:23:14;16.75;;;11.55;;
48516;SDS011;34310;51.904;4.256;2024-01-11T07:25:41;17.02;;;11.00;;
48516;SDS011;34310;51.904;4.256;2024-01-11T07:28:08;15.38;;;11.38;;
48516;SDS011;34310;51.904;4.256;2024-01-11T07:30:35;18.77;;;11.77;;
48516;SDS011;34310;51.904;4.256;2024-01-11T07:33:02;13.60;;;11.27;;
48516;SDS011;34310;51.904;4.256;2024-01-11T07:35:29;15.18;;;11.18;;
48516;SDS011;34310;51.904;4.256;2024-01-11T07:37:55;14.02;;;11.25;;
48516;SDS011;34310;51.904;4.256;2024-01-11T07:40:22;16.30;;;12.23;;
48516;SDS011;34310;51.904;4.256;2024-01-11T07:42:48;16.60;;;12.20;;
48516;SDS011;34310;51.904;4.256;2024-01-11T07:45:15;15.15;;;12.02;;
48516;SDS011;34310;51.904;4.256;2024-01-11T07:47:42;13.38;;;11.20;;
48516;SDS011;34310;51.904;4.256;2024-01-11T07:50:08;13.95;;;11.25;;
48516;SDS011;34310;51.904;4.256;2024-01-11T07:52:35;13.98;;;11.68;;
48516;SDS011;34310;51.904;4.256;2024-01-11T07:55:03;14.68;;;12.30;;
48516;SDS011;34310;51.904;4.256;2024-01-11T07:57:30;14.07;;;11.50;;
48516;SDS011;34310;51.904;4.256;2024-01-11T07:59:56;14.45;;;11.73;;
48516;SDS011;34310;51.904;4.256;2024-01-11T08:02:23;14.32;;;11.85;;
48516;SDS011;34310;51.904;4.256;2024-01-11T08:04:49;14.82;;;12.40;;
48516;SDS011;34310;51.904;4.256;2024-01-11T08:07:16;15.10;;;12.38;;
48516;SDS011;34310;51.904;4.256;2024-01-11T08:09:43;15.52;;;12.18;;
48516;SDS011;34310;51.904;4.256;2024-01-11T08:12:09;14.82;;;12.18;;
48516;SDS011;34310;51.904;4.256;2024-01-11T08:14:36;14.50;;;11.93;;
48516;SDS011;34310;51.904;4.256;2024-01-11T08:17:03;15.20;;;12.77;;
48516;SDS011;34310;51.904;4.256;2024-01-11T08:19:30;14.05;;;12.13;;
48516;SDS011;34310;51.904;4.256;2024-01-11T08:21:57;14.45;;;12.60;;
48516;SDS011;34310;51.904;4.256;2024-01-11T08:24:23;14.20;;;12.25;;
48516;SDS011;34310;51.904;4.256;2024-01-11T08:26:50;14.90;;;12.80;;
48516;SDS011;34310;51.904;4.256;2024-01-11T08:29:17;15.02;;;12.57;;
48516;SDS011;34310;51.904;4.256;2024-01-11T08:31:43;15.63;;;12.98;;
48516;SDS011;34310;51.904;4.256;2024-01-11T08:34:10;15.63;;;12.95;;
48516;SDS011;34310;51.904;4.256;2024-01-11T08:36:37;15.68;;;12.95;;
48516;SDS011;34310;51.904;4.256;2024-01-11T08:39:03;16.15;;;13.38;;
48516;SDS011;34310;51.904;4.256;2024-01-11T08:41:30;15.20;;;13.05;;
48516;SDS011;34310;51.904;4.256;2024-01-11T08:43:57;15.18;;;12.65;;
48516;SDS011;34310;51.904;4.256;2024-01-11T08:46:24;15.50;;;13.02;;
48516;SDS011;34310;51.904;4.256;2024-01-11T08:48:52;14.32;;;12.25;;
48516;SDS011;34310;51.904;4.256;2024-01-11T08:51:19;14.45;;;12.52;;
48516;SDS011;34310;51.904;4.256;2024-01-11T08:53:45;15.55;;;13.00;;
48516;SDS011;34310;51.904;4.256;2024-01-11T08:56:12;14.90;;;12.23;;
48516;SDS011;34310;51.904;4.256;2024-01-11T08:58:39;15.38;;;12.35;;
48516;SDS011;34310;51.904;4.256;2024-01-11T09:01:06;14.80;;;12.18;;
48516;SDS011;34310;51.904;4.256;2024-01-11T09:03:33;14.68;;;12.30;;
48516;SDS011;34310;51.904;4.256;2024-01-11T09:06:00;14.80;;;12.70;;
48516;SDS011;34310;51.904;4.256;2024-01-11T09:08:26;13.88;;;12.32;;
48516;SDS011;34310;51.904;4.256;2024-01-11T09:10:53;14.13;;;12.63;;
48516;SDS011;34310;51.904;4.256;2024-01-11T09:13:19;15.52;;;13.00;;
48516;SDS011;34310;51.904;4.256;2024-01-11T09:15:46;14.02;;;12.52;;
48516;SDS011;34310;51.904;4.256;2024-01-11T09:18:12;14.20;;;12.48;;
48516;SDS011;34310;51.904;4.256;2024-01-11T09:20:39;15.18;;;12.90;;
48516;SDS011;34310;51.904;4.256;2024-01-11T09:23:06;13.75;;;12.25;;
48516;SDS011;34310;51.904;4.256;2024-01-11T09:25:33;14.00;;;12.50;;
48516;SDS011;34310;51.904;4.256;2024-01-11T09:27:59;15.82;;;13.30;;
48516;SDS011;34310;51.904;4.256;2024-01-11T09:30:26;14.13;;;12.57;;
48516;SDS011;34310;51.904;4.256;2024-01-11T09:32:52;14.85;;;13.00;;
48516;SDS011;34310;51.904;4.256;2024-01-11T09:35:19;14.32;;;12.80;;
48516;SDS011;34310;51.904;4.256;2024-01-11T09:37:46;14.50;;;13.00;;
48516;SDS011;34310;51.904;4.256;2024-01-11T09:40:13;15.57;;;13.75;;
48516;SDS011;34310;51.904;4.256;2024-01-11T09:42:39;15.25;;;13.65;;
48516;SDS011;34310;51.904;4.256;2024-01-11T09:45:15;15.27;;;13.10;;
48516;SDS011;34310;51.904;4.256;2024-01-11T09:47:45;16.20;;;13.95;;
48516;SDS011;34310;51.904;4.256;2024-01-11T09:50:14;18.13;;;15.20;;
48516;SDS011;34310;51.904;4.256;2024-01-11T09:52:41;16.08;;;14.23;;
48516;SDS011;34310;51.904;4.256;2024-01-11T09:55:12;16.33;;;13.90;;
48516;SDS011;34310;51.904;4.256;2024-01-11T09:57:39;16.05;;;14.20;;
48516;SDS011;34310;51.904;4.256;2024-01-11T10:00:09;17.10;;;14.48;;
48516;SDS011;34310;51.904;4.256;2024-01-11T10:02:39;16.58;;;14.02;;
48516;SDS011;34310;51.904;4.256;2024-01-11T10:05:06;16.33;;;14.43;;
48516;SDS011;34310;51.904;4.256;2024-01-11T10:07:33;17.48;;;14.70;;
48516;SDS011;34310;51.904;4.256;2024-01-11T10:10:00;17.20;;;14.02;;
48516;SDS011;34310;51.904;4.256;2024-01-11T10:12:30;15.82;;;14.10;;
48516;SDS011;34310;51.904;4.256;2024-01-11T10:15:03;16.05;;;14.32;;
48516;SDS011;34310;51.904;4.256;2024-01-11T10:19:58;16.80;;;14.45;;
48516;SDS011;34310;51.904;4.256;2024-01-11T10:22:24;15.20;;;13.60;;
48516;SDS011;34310;51.904;4.256;2024-01-11T10:25:07;15.05;;;13.02;;
48516;SDS011;34310;51.904;4.256;2024-01-11T10:27:42;15.05;;;13.32;;
48516;SDS011;34310;51.904;4.256;2024-01-11T10:30:10;15.20;;;13.27;;
48516;SDS011;34310;51.904;4.256;2024-01-11T10:32:37;14.90;;;13.30;;
48516;SDS011;34310;51.904;4.256;2024-01-11T10:35:04;15.27;;;13.55;;
48516;SDS011;34310;51.904;4.256;2024-01-11T10:37:32;13.18;;;11.77;;
48516;SDS011;34310;51.904;4.256;2024-01-11T10:40:02;14.23;;;12.70;;
48516;SDS011;34310;51.904;4.256;2024-01-11T10:42:31;14.98;;;13.10;;
48516;SDS011;34310;51.904;4.256;2024-01-11T10:45:00;14.02;;;12.30;;
48516;SDS011;34310;51.904;4.256;2024-01-11T10:47:30;14.43;;;12.32;;
48516;SDS011;34310;51.904;4.256;2024-01-11T10:49:57;14.02;;;11.85;;
48516;SDS011;34310;51.904;4.256;2024-01-11T10:52:28;13.25;;;11.82;;
48516;SDS011;34310;51.904;4.256;2024-01-11T10:54:59;13.52;;;11.88;;
48516;SDS011;34310;51.904;4.256;2024-01-11T10:57:27;15.90;;;12.80;;
48516;SDS011;34310;51.904;4.256;2024-01-11T10:59:56;13.43;;;12.02;;
48516;SDS011;34310;51.904;4.256;2024-01-11T11:02:24;13.00;;;11.60;;
48516;SDS011;34310;51.904;4.256;2024-01-11T11:04:52;12.32;;;10.75;;
48516;SDS011;34310;51.904;4.256;2024-01-11T11:07:21;13.63;;;12.13;;
48516;SDS011;34310;51.904;4.256;2024-01-11T11:09:49;13.02;;;11.68;;
48516;SDS011;34310;51.904;4.256;2024-01-11T11:12:18;12.88;;;11.35;;
48516;SDS011;34310;51.904;4.256;2024-01-11T11:14:45;12.32;;;11.10;;
48516;SDS011;34310;51.904;4.256;2024-01-11T11:17:14;12.10;;;10.38;;
48516;SDS011;34310;51.904;4.256;2024-01-11T11:19:41;11.95;;;10.75;;
48516;SDS011;34310;51.904;4.256;2024-01-11T11:22:08;11.70;;;10.43;;
48516;SDS011;34310;51.904;4.256;2024-01-11T11:24:35;11.65;;;10.40;;
48516;SDS011;34310;51.904;4.256;2024-01-11T11:27:01;12.70;;;10.88;;
48516;SDS011;34310;51.904;4.256;2024-01-11T11:29:28;11.43;;;10.15;;
48516;SDS011;34310;51.904;4.256;2024-01-11T11:31:54;10.75;;;9.65;;
48516;SDS011;34310;51.904;4.256;2024-01-11T11:34:43;11.27;;;10.10;;
48516;SDS011;34310;51.904;4.256;2024-01-11T11:37:11;11.55;;;10.35;;
48516;SDS011;34310;51.904;4.256;2024-01-11T11:39:37;11.57;;;10.27;;
48516;SDS011;34310;51.904;4.256;2024-01-11T11:42:07;11.27;;;10.07;;
48516;SDS011;34310;51.904;4.256;2024-01-11T11:44:35;10.40;;;9.30;;
48516;SDS011;34310;51.904;4.256;2024-01-11T11:50:08;12.00;;;10.00;;
48516;SDS011;34310;51.904;4.256;2024-01-11T11:52:39;10.82;;;9.73;;
48516;SDS011;34310;51.904;4.256;2024-01-11T11:55:07;10.55;;;9.45;;
48516;SDS011;34310;51.904;4.256;2024-01-11T11:57:37;11.25;;;10.05;;
48516;SDS011;34310;51.904;4.256;2024-01-11T12:00:04;11.23;;;10.02;;
48516;SDS011;34310;51.904;4.256;2024-01-11T12:02:31;10.80;;;9.60;;
48516;SDS011;34310;51.904;4.256;2024-01-11T12:04:58;11.25;;;9.90;;
48516;SDS011;34310;51.904;4.256;2024-01-11T12:07:24;10.65;;;9.57;;
48516;SDS011;34310;51.904;4.256;2024-01-11T12:09:51;10.60;;;9.45;;
48516;SDS011;34310;51.904;4.256;2024-01-11T12:12:18;10.75;;;9.63;;
48516;SDS011;34310;51.904;4.256;2024-01-11T12:14:45;10.43;;;9.10;;
48516;SDS011;34310;51.904;4.256;2024-01-11T12:17:11;9.43;;;8.45;;
48516;SDS011;34310;51.904;4.256;2024-01-11T12:19:38;10.23;;;9.13;;
48516;SDS011;34310;51.904;4.256;2024-01-11T12:22:05;10.15;;;9.07;;
48516;SDS011;34310;51.904;4.256;2024-01-11T12:24:32;9.68;;;8.70;;
48516;SDS011;34310;51.904;4.256;2024-01-11T12:27:01;9.20;;;8.20;;
48516;SDS011;34310;51.904;4.256;2024-01-11T12:29:31;8.80;;;7.90;;
48516;SDS011;34310;51.904;4.256;2024-01-11T12:32:09;9.00;;;8.10;;
48516;SDS011;34310;51.904;4.256;2024-01-11T12:34:36;8.77;;;7.88;;
48516;SDS011;34310;51.904;4.256;2024-01-11T12:37:03;8.27;;;7.47;;
48516;SDS011;34310;51.904;4.256;2024-01-11T12:39:31;7.97;;;7.18;;
48516;SDS011;34310;51.904;4.256;2024-01-11T12:41:58;8.32;;;7.43;;
48516;SDS011;34310;51.904;4.256;2024-01-11T12:44:24;8.20;;;7.30;;
48516;SDS011;34310;51.904;4.256;2024-01-11T12:46:52;7.85;;;7.05;;
48516;SDS011;34310;51.904;4.256;2024-01-11T12:49:18;7.65;;;6.65;;
48516;SDS011;34310;51.904;4.256;2024-01-11T12:51:45;7.80;;;7.00;;
48516;SDS011;34310;51.904;4.256;2024-01-11T12:54:12;8.57;;;7.10;;
48516;SDS011;34310;51.904;4.256;2024-01-11T12:56:42;7.85;;;7.05;;
48516;SDS011;34310;51.904;4.256;2024-01-11T12:59:11;6.95;;;6.35;;
48516;SDS011;34310;51.904;4.256;2024-01-11T13:01:38;7.22;;;6.40;;
48516;SDS011;34310;51.904;4.256;2024-01-11T13:04:05;7.40;;;6.40;;
48516;SDS011;34310;51.904;4.256;2024-01-11T13:06:34;6.93;;;6.22;;
48516;SDS011;34310;51.904;4.256;2024-01-11T13:09:01;7.10;;;6.40;;
48516;SDS011;34310;51.904;4.256;2024-01-11T13:11:28;6.82;;;6.13;;
48516;SDS011;34310;51.904;4.256;2024-01-11T13:13:55;7.03;;;6.32;;
48516;SDS011;34310;51.904;4.256;2024-01-11T13:16:21;6.85;;;6.15;;
48516;SDS011;34310;51.904;4.256;2024-01-11T13:18:50;6.70;;;6.00;;
48516;SDS011;34310;51.904;4.256;2024-01-11T13:21:17;6.90;;;6.20;;
48516;SDS011;34310;51.904;4.256;2024-01-11T13:23:44;7.05;;;6.35;;
48516;SDS011;34310;51.904;4.256;2024-01-11T13:26:10;6.47;;;5.85;;
48516;SDS011;34310;51.904;4.256;2024-01-11T13:28:37;6.55;;;5.90;;
48516;SDS011;34310;51.904;4.256;2024-01-11T13:31:03;6.53;;;5.93;;
48516;SDS011;34310;51.904;4.256;2024-01-11T13:33:30;6.15;;;5.55;;
48516;SDS011;34310;51.904;4.256;2024-01-11T13:35:57;6.03;;;5.45;;
48516;SDS011;34310;51.904;4.256;2024-01-11T13:38:23;6.43;;;5.68;;
48516;SDS011;34310;51.904;4.256;2024-01-11T13:40:51;6.63;;;5.93;;
48516;SDS011;34310;51.904;4.256;2024-01-11T13:43:17;6.10;;;5.50;;
48516;SDS011;34310;51.904;4.256;2024-01-11T13:45:44;6.20;;;5.60;;
48516;SDS011;34310;51.904;4.256;2024-01-11T13:48:11;6.25;;;5.65;;
48516;SDS011;34310;51.904;4.256;2024-01-11T13:50:37;5.93;;;5.32;;
48516;SDS011;34310;51.904;4.256;2024-01-11T13:53:04;6.40;;;5.72;;
48516;SDS011;34310;51.904;4.256;2024-01-11T13:55:31;6.20;;;5.60;;
48516;SDS011;34310;51.904;4.256;2024-01-11T13:57:57;6.75;;;6.05;;
48516;SDS011;34310;51.904;4.256;2024-01-11T14:00:24;6.13;;;5.53;;
48516;SDS011;34310;51.904;4.256;2024-01-11T14:02:50;5.93;;;5.32;;
48516;SDS011;34310;51.904;4.256;2024-01-11T14:05:17;6.22;;;5.50;;
48516;SDS011;34310;51.904;4.256;2024-01-11T14:07:45;6.50;;;5.82;;
48516;SDS011;34310;51.904;4.256;2024-01-11T14:10:12;6.15;;;5.55;;
48516;SDS011;34310;51.904;4.256;2024-01-11T14:12:40;7.43;;;5.72;;
48516;SDS011;34310;51.904;4.256;2024-01-11T14:15:07;6.43;;;5.82;;
48516;SDS011;34310;51.904;4.256;2024-01-11T14:17:35;6.10;;;5.40;;
48516;SDS011;34310;51.904;4.256;2024-01-11T14:20:02;7.28;;;5.70;;
48516;SDS011;34310;51.904;4.256;2024-01-11T14:22:29;5.95;;;5.35;;
48516;SDS011;34310;51.904;4.256;2024-01-11T14:24:56;5.88;;;5.28;;
48516;SDS011;34310;51.904;4.256;2024-01-11T14:27:23;5.82;;;4.78;;
48516;SDS011;34310;51.904;4.256;2024-01-11T14:29:49;5.38;;;4.80;;
48516;SDS011;34310;51.904;4.256;2024-01-11T14:32:16;5.90;;;5.32;;
48516;SDS011;34310;51.904;4.256;2024-01-11T14:34:59;5.43;;;4.88;;
48516;SDS011;34310;51.904;4.256;2024-01-11T14:37:26;5.97;;;5.38;;
48516;SDS011;34310;51.904;4.256;2024-01-11T14:39:52;5.85;;;5.18;;
48516;SDS011;34310;51.904;4.256;2024-01-11T14:42:19;5.25;;;4.75;;
48516;SDS011;34310;51.904;4.256;2024-01-11T14:44:45;5.45;;;4.95;;
48516;SDS011;34310;51.904;4.256;2024-01-11T14:47:12;5.88;;;5.28;;